»·PEaware :: ENK1152 CYYF-KGEG

ENK1152 :: CYYF-KGEG

FLIGHT INFORMATION

Flight Status: Arrived
Operator: Unknown
More flights by this operator :: More flights under this callsign
Pilot: Gregory A. (9731)
Aircraft: BEECH AIRCRAFT SUPER KING AIR 350
(B350)
More flights by this aircraft type
Origin: CYYF Penticton
Canada
Destination: KGEG Spokane Intl
United States
More flights between these airports :: More routes between these airports
Route: +
File this flight plan on PilotEdge
Remarks: Will get clearance entering US airspace
Altitude:
(Current/Filed)
150ft
Speed:
(Current/Filed)
280kts
Departed: 05-May-18 11:41 AM
Arrived: 05-May-18 12:24 PM
Distance/Time
Traveled:
137nm/0:43
Distance/Time
To Go:
Arrived

Flight Plot

Page will automatically refresh every two minutes.

Flight plan parsing failed; only flown route is shown


Map Options




Map Legend


Flown Route
Filed Route
Departure Airport
Arrival Airport
Navaid (VOR, NDB)
Fix

Horizontal Profiles

Position Reports

Time Latitude Longitude Heading Altitude Ground
Speed
05-May-18 11:29 49.459987 -119.604835 271 1133ft 0kts
05-May-18 11:30 49.459987 -119.604835 271 1133ft 0kts
05-May-18 11:31 49.459879 -119.605077 221 1133ft 0kts
05-May-18 11:32 49.459632 -119.605262 99 1133ft 0kts
05-May-18 11:33 49.459631 -119.605261 99 1133ft 0kts
05-May-18 11:34 49.459614 -119.605082 95 1133ft 4kts
05-May-18 11:35 49.459977 -119.604160 0 1133ft 16kts
05-May-18 11:36 49.460872 -119.604228 355 1133ft 4kts
05-May-18 11:37 49.462251 -119.602397 0 1133ft 26kts
05-May-18 11:38 49.466191 -119.602244 358 1133ft 18kts
05-May-18 11:39 49.469956 -119.603923 359 1133ft 10kts
05-May-18 11:40 49.470742 -119.603014 86 1133ft 0kts
05-May-18 11:41 49.461700 -119.602367 181 1143ft 143kts
05-May-18 11:42 49.409646 -119.593751 164 2281ft 211kts
05-May-18 11:43 49.351297 -119.570898 166 3467ft 219kts
05-May-18 11:44 49.290805 -119.538924 146 3530ft 246kts
05-May-18 11:45 49.225621 -119.528813 192 3358ft 248kts
05-May-18 11:46 49.160789 -119.562074 203 2984ft 241kts
05-May-18 11:47 49.097295 -119.557151 150 2984ft 240kts
05-May-18 11:48 49.042402 -119.498526 140 2963ft 241kts
05-May-18 11:49 48.987993 -119.439587 157 2967ft 241kts
05-May-18 11:50 48.921821 -119.427363 179 2957ft 241kts
05-May-18 11:51 48.854415 -119.425173 177 2947ft 242kts
05-May-18 11:52 48.788515 -119.407082 165 2936ft 241kts
05-May-18 11:53 48.721910 -119.406160 196 2925ft 242kts
05-May-18 11:54 48.664426 -119.458553 208 2926ft 242kts
05-May-18 11:55 48.604749 -119.505708 209 2919ft 242kts
05-May-18 11:56 48.541204 -119.524386 166 2922ft 243kts
05-May-18 11:57 48.480048 -119.498342 163 4346ft 221kts
05-May-18 11:58 48.422980 -119.464333 137 5833ft 226kts
05-May-18 11:59 48.390291 -119.383048 113 7329ft 233kts
05-May-18 12:00 48.361160 -119.295188 119 8813ft 236kts
05-May-18 12:01 48.326567 -119.206569 121 9490ft 259kts
05-May-18 12:02 48.290577 -119.117967 120 11137ft 244kts
05-May-18 12:03 48.254592 -119.030177 119 12876ft 251kts
05-May-18 12:04 48.217286 -118.939715 119 14644ft 259kts
05-May-18 12:05 48.176401 -118.840885 119 14966ft 290kts
05-May-18 12:06 48.133418 -118.737826 119 14949ft 292kts
05-May-18 12:07 48.090130 -118.634412 119 14939ft 292kts
05-May-18 12:08 48.046923 -118.531444 119 14926ft 292kts
05-May-18 12:09 48.003416 -118.428117 119 14658ft 297kts
05-May-18 12:10 47.959292 -118.323719 120 14223ft 296kts
05-May-18 12:11 47.915384 -118.220239 120 13781ft 294kts
05-May-18 12:12 47.883451 -118.111159 97 13353ft 286kts
05-May-18 12:13 47.870345 -117.994406 95 12897ft 284kts
05-May-18 12:14 47.858138 -117.878398 94 12451ft 283kts
05-May-18 12:15 47.846245 -117.762910 94 11976ft 282kts
05-May-18 12:16 47.835014 -117.641352 95 9989ft 300kts
05-May-18 12:17 47.826205 -117.518708 94 7993ft 295kts
05-May-18 12:18 47.816779 -117.399419 110 5984ft 285kts
05-May-18 12:19 47.755405 -117.361630 194 4912ft 229kts
05-May-18 12:20 47.708141 -117.397283 229 4724ft 174kts
05-May-18 12:21 47.677656 -117.449195 225 3689ft 151kts
05-May-18 12:22 47.648889 -117.491925 225 2884ft 141kts
05-May-18 12:23 47.623388 -117.529979 225 2354ft 84kts
05-May-18 12:24 47.618248 -117.540787 272 2354ft 15kts
05-May-18 12:25 47.622518 -117.536977 45 2354ft 11kts
05-May-18 12:26 47.624322 -117.534082 44 2354ft 12kts
05-May-18 12:27 47.627279 -117.529662 22 2354ft 10kts
05-May-18 12:28 47.629053 -117.527755 63 2354ft 0kts

Navigation Log

Ident Type
Flight plan parsing failed, navigation log unavailable